Time;durP1;ratioP1;P1;durP2;ratioP2;P2;SDS_P1;SDS_P2;PMS_P1;PMS_P2;Temp;Humidity;BMP_temperature;BMP_pressure;BME280_temperature;BME280_humidity;BME280_pressure;Samples;Min_cycle;Max_cycle;Signal;HPM_P1;HPM_P2
2022/01/20 00:00:43;;;;;;;26.77;4.50;;;4.30;99.90;;;;;;5039986;27;20104;-95
2022/01/20 00:03:40;;;;;;;;;;;4.30;99.90;;;;;;5064755;27;20588;-96
2022/01/20 00:09:14;;;;;;;23.52;3.70;;;4.50;99.90;;;;;;5059186;27;20043;-93
2022/01/20 00:23:15;;;;;;;17.23;2.90;;;4.80;99.90;;;;;;5059890;27;20031;-91
2022/01/20 00:26:31;;;;;;;20.88;3.70;;;4.70;99.90;;;;;;5040150;27;20470;-93
2022/01/20 00:29:19;;;;;;;16.85;2.88;;;4.70;99.90;;;;;;5050020;27;20043;-95
2022/01/20 00:32:04;;;;;;;19.23;3.20;;;4.80;99.90;;;;;;5044645;27;20063;-95
2022/01/20 00:37:50;;;;;;;18.08;2.50;;;4.80;99.90;;;;;;5061973;27;20096;-95
2022/01/20 00:40:32;;;;;;;15.13;2.65;;;4.70;99.90;;;;;;5054118;27;20062;-96
2022/01/20 00:43:01;;;;;;;16.20;2.58;;;4.60;99.90;;;;;;5061130;27;20073;-92
2022/01/20 00:45:51;;;;;;;16.10;2.30;;;4.60;99.90;;;;;;5038338;27;20224;-95
2022/01/20 00:48:37;;;;;;;15.25;3.05;;;4.60;99.90;;;;;;5062392;27;20374;-94
2022/01/20 00:51:25;;;;;;;;;;;;;;;;;;;;;
2022/01/20 00:54:14;;;;;;;15.68;2.53;;;4.70;99.90;;;;;;5076068;27;20381;-96
2022/01/20 00:56:43;;;;;;;18.70;2.63;;;4.70;99.90;;;;;;5019545;27;20047;-94
2022/01/20 00:59:09;;;;;;;16.42;3.20;;;4.70;99.90;;;;;;5059749;27;20058;-95
2022/01/20 01:01:41;;;;;;;15.10;2.55;;;4.70;99.90;;;;;;5044327;27;20351;-95
2022/01/20 01:05:00;;;;;;;20.23;2.60;;;4.70;99.90;;;;;;5017502;27;20070;-96
2022/01/20 01:07:53;;;;;;;20.40;2.55;;;4.80;99.90;;;;;;5015968;27;20290;-95
2022/01/20 01:13:31;;;;;;;18.83;3.00;;;4.60;99.90;;;;;;5031922;27;20353;-96
2022/01/20 01:15:57;;;;;;;18.80;2.72;;;4.50;99.90;;;;;;5039995;27;20047;-95
2022/01/20 01:21:42;;;;;;;16.70;2.70;;;4.40;99.90;;;;;;5058132;27;20047;-96
2022/01/20 01:24:28;;;;;;;19.27;2.63;;;4.40;99.90;;;;;;5040582;27;20055;-96
2022/01/20 01:27:23;;;;;;;13.18;2.13;;;4.30;99.90;;;;;;5046631;27;20260;-96
2022/01/20 01:31:03;;;;;;;13.88;2.42;;;4.20;99.90;;;;;;5043572;27;20535;-94
2022/01/20 01:33:28;;;;;;;16.23;2.45;;;4.20;99.90;;;;;;5080726;27;20051;-96
2022/01/20 01:36:08;;;;;;;13.63;2.13;;;4.20;99.90;;;;;;5047807;27;20142;-96
2022/01/20 01:38:48;;;;;;;18.48;2.55;;;4.20;99.90;;;;;;5050124;27;20061;-96
2022/01/20 01:41:44;;;;;;;14.75;2.08;;;4.10;99.90;;;;;;4993455;28;20576;-96
2022/01/20 01:44:20;;;;;;;18.60;2.83;;;4.10;99.90;;;;;;4990635;28;20060;-95
2022/01/20 01:47:13;;;;;;;16.33;2.47;;;4.10;99.90;;;;;;4966909;28;20055;-95
2022/01/20 01:49:39;;;;;;;11.60;1.90;;;4.10;99.90;;;;;;4970963;28;20405;-95
2022/01/20 01:52:28;;;;;;;18.95;2.72;;;4.10;99.90;;;;;;4960280;28;20045;-94
2022/01/20 01:54:57;;;;;;;14.48;2.47;;;4.10;99.90;;;;;;4957087;28;20045;-96
2022/01/20 01:58:09;;;;;;;;;;;;;;;;;;;;;
2022/01/20 02:00:47;;;;;;;;;;;4.20;99.90;;;;;;4923190;28;21168;-95
2022/01/20 02:03:15;;;;;;;;;;;4.40;99.90;;;;;;4946697;28;20318;-96
2022/01/20 02:08:44;;;;;;;14.93;2.30;;;4.50;99.90;;;;;;4938514;28;20544;-96
2022/01/20 02:19:43;;;;;;;9.68;1.48;;;4.70;99.90;;;;;;5012094;28;20384;-92
2022/01/20 02:22:11;;;;;;;10.00;1.60;;;4.70;99.90;;;;;;4961977;28;20098;-91
2022/01/20 02:24:37;;;;;;;9.73;1.25;;;4.60;99.90;;;;;;4978284;28;20079;-95
2022/01/20 02:27:04;;;;;;;8.35;1.33;;;4.50;99.90;;;;;;4998986;28;20458;-94
2022/01/20 02:29:40;;;;;;;10.73;1.52;;;4.50;99.90;;;;;;4992927;28;20040;-94
2022/01/20 02:32:15;;;;;;;12.68;1.90;;;4.40;99.90;;;;;;4988345;28;20043;-94
2022/01/20 02:34:44;;;;;;;13.40;1.85;;;4.30;99.90;;;;;;4981158;28;20052;-94
2022/01/20 02:37:16;;;;;;;11.60;1.63;;;4.30;99.90;;;;;;4998962;28;20079;-94
2022/01/20 02:40:03;;;;;;;13.00;2.17;;;4.30;99.90;;;;;;4996428;28;20837;-95
2022/01/20 02:45:20;;;;;;;11.45;1.80;;;4.20;99.90;;;;;;4992740;28;20045;-94
2022/01/20 02:47:50;;;;;;;10.90;1.58;;;4.20;99.90;;;;;;4994965;28;20862;-92
2022/01/20 02:50:16;;;;;;;12.77;1.83;;;4.30;99.90;;;;;;4991279;28;20558;-94
2022/01/20 02:52:42;;;;;;;10.95;1.65;;;4.30;99.90;;;;;;4979245;28;20044;-93
2022/01/20 02:55:08;;;;;;;10.98;1.75;;;4.40;99.90;;;;;;4997440;28;20055;-93
2022/01/20 02:57:36;;;;;;;8.63;1.20;;;4.40;99.90;;;;;;4976591;28;20314;-93
2022/01/20 03:00:07;;;;;;;12.05;1.60;;;4.50;99.90;;;;;;4970280;28;20155;-93
2022/01/20 03:02:32;;;;;;;10.82;2.35;;;4.50;99.90;;;;;;5005994;28;20048;-95
2022/01/20 03:05:01;;;;;;;14.88;2.22;;;4.50;99.90;;;;;;4962634;28;20040;-94
2022/01/20 03:07:27;;;;;;;13.05;1.90;;;4.60;99.90;;;;;;4992163;28;20040;-93
2022/01/20 03:09:53;;;;;;;7.68;1.30;;;4.50;99.90;;;;;;5011324;28;20577;-93
2022/01/20 03:12:21;;;;;;;7.82;1.27;;;4.50;99.90;;;;;;4974480;28;20043;-94
2022/01/20 03:15:07;;;;;;;9.70;1.55;;;4.50;99.90;;;;;;4963588;28;20368;-93
2022/01/20 03:17:33;;;;;;;11.63;1.58;;;4.50;99.90;;;;;;4993151;28;20048;-93
2022/01/20 03:20:13;;;;;;;8.52;1.17;;;4.40;99.90;;;;;;4976899;28;20115;-93
2022/01/20 03:22:39;;;;;;;10.73;1.65;;;4.40;99.90;;;;;;4990769;28;22448;-94
2022/01/20 03:25:07;;;;;;;11.35;1.73;;;4.20;99.90;;;;;;4992178;28;20048;-92
2022/01/20 03:27:38;;;;;;;10.80;2.28;;;4.20;99.90;;;;;;4996932;28;20044;-93
2022/01/20 03:30:08;;;;;;;14.75;2.08;;;4.10;99.90;;;;;;4988204;28;20136;-93
2022/01/20 03:32:37;;;;;;;12.00;2.00;;;4.10;99.90;;;;;;4976887;28;20080;-94
2022/01/20 03:35:07;;;;;;;13.38;2.17;;;4.10;99.90;;;;;;5000635;28;20374;-94
2022/01/20 03:37:33;;;;;;;12.55;1.70;;;4.00;99.90;;;;;;5015077;28;20040;-93
2022/01/20 03:39:59;;;;;;;13.10;2.58;;;4.00;99.90;;;;;;4999050;28;20049;-94
2022/01/20 03:42:25;;;;;;;13.18;2.15;;;4.10;99.90;;;;;;4995258;28;20499;-93
2022/01/20 03:44:52;;;;;;;12.95;2.58;;;4.00;99.90;;;;;;4990721;28;20058;-93
2022/01/20 03:47:19;;;;;;;13.93;2.60;;;4.00;99.90;;;;;;4981935;28;20115;-93
2022/01/20 03:49:55;;;;;;;19.55;2.42;;;4.00;99.90;;;;;;5018009;28;20159;-94
2022/01/20 03:52:24;;;;;;;16.52;2.38;;;4.00;99.90;;;;;;5016791;28;20134;-95
2022/01/20 03:54:50;;;;;;;15.93;2.85;;;4.10;99.90;;;;;;5001774;28;20054;-94
2022/01/20 03:57:23;;;;;;;14.90;2.58;;;4.00;99.90;;;;;;4999211;28;20043;-93
2022/01/20 03:59:49;;;;;;;17.80;3.28;;;3.90;99.90;;;;;;4998081;28;20671;-93
2022/01/20 04:02:15;;;;;;;20.25;3.08;;;4.10;99.90;;;;;;5014241;28;20129;-92
2022/01/20 04:04:43;;;;;;;19.38;2.75;;;4.10;99.90;;;;;;5007070;28;20044;-93
2022/01/20 04:07:08;;;;;;;20.85;3.63;;;4.10;99.90;;;;;;5020713;28;20052;-91
2022/01/20 04:09:34;;;;;;;21.17;3.58;;;4.10;99.90;;;;;;4999928;28;20388;-93
2022/01/20 04:12:00;;;;;;;21.33;3.33;;;4.00;99.90;;;;;;5020288;28;20131;-95
2022/01/20 04:14:28;;;;;;;24.55;3.90;;;4.00;99.90;;;;;;5007235;28;20050;-93
2022/01/20 04:19:26;;;;;;;18.02;3.47;;;3.90;99.90;;;;;;5041392;28;20540;-95
2022/01/20 04:21:52;;;;;;;23.23;4.60;;;4.00;99.90;;;;;;5008301;28;20379;-94
2022/01/20 04:24:26;;;;;;;22.50;4.22;;;4.00;99.90;;;;;;5025901;28;20056;-95
2022/01/20 04:26:53;;;;;;;24.63;3.63;;;4.00;99.90;;;;;;5005809;28;20071;-95
2022/01/20 04:29:21;;;;;;;21.65;3.88;;;3.90;99.90;;;;;;5003801;28;20082;-95
2022/01/20 04:31:57;;;;;;;26.55;3.55;;;3.90;99.90;;;;;;5018950;28;20350;-95
2022/01/20 04:34:36;;;;;;;;;;;;;;;;;;;;;
2022/01/20 04:37:05;;;;;;;17.95;3.33;;;3.90;99.90;;;;;;5018004;28;20063;-96
2022/01/20 04:39:39;;;;;;;23.17;3.28;;;3.90;99.90;;;;;;5011619;28;20139;-96
2022/01/20 04:42:10;;;;;;;18.48;2.90;;;3.90;99.90;;;;;;5031911;28;20473;-96
2022/01/20 04:44:46;;;;;;;21.38;3.65;;;3.90;99.90;;;;;;5008775;28;20628;-94
2022/01/20 04:47:57;;;;;;;18.92;3.70;;;3.90;99.90;;;;;;5035905;27;20054;-91
2022/01/20 04:58:45;;;;;;;23.70;3.63;;;3.90;99.90;;;;;;5056139;27;20471;-96
2022/01/20 05:01:15;;;;;;;20.20;3.67;;;3.90;99.90;;;;;;5036578;27;20223;-95
2022/01/20 05:03:46;;;;;;;17.95;4.05;;;3.90;99.90;;;;;;5039017;27;20054;-95
2022/01/20 05:06:17;;;;;;;15.60;2.95;;;3.80;99.90;;;;;;5035450;27;20349;-95
2022/01/20 05:08:43;;;;;;;19.05;3.15;;;3.70;99.90;;;;;;5053754;27;20051;-95
2022/01/20 05:11:13;;;;;;;19.77;3.42;;;3.70;99.90;;;;;;5038001;27;20464;-94
2022/01/20 05:13:40;;;;;;;18.02;2.80;;;3.60;99.90;;;;;;5046576;27;20047;-93
2022/01/20 05:16:08;;;;;;;17.05;2.88;;;3.60;99.90;;;;;;5039071;27;20043;-94
2022/01/20 05:18:39;;;;;;;17.20;2.92;;;3.50;99.90;;;;;;5054537;27;20074;-95
2022/01/20 05:21:07;;;;;;;17.52;3.78;;;3.50;99.90;;;;;;5039758;27;20043;-96
2022/01/20 05:23:34;;;;;;;12.18;2.63;;;3.50;99.90;;;;;;5037367;27;20035;-94
2022/01/20 05:26:00;;;;;;;15.35;2.67;;;3.40;99.90;;;;;;5030895;27;20039;-96
2022/01/20 05:28:32;;;;;;;16.77;2.92;;;3.40;99.90;;;;;;5032124;27;20043;-95
2022/01/20 05:30:59;;;;;;;16.92;2.67;;;3.30;99.90;;;;;;5023075;27;21078;-96
2022/01/20 05:33:39;;;;;;;18.55;2.67;;;3.30;99.90;;;;;;5030997;27;20497;-95
2022/01/20 05:36:08;;;;;;;14.18;2.60;;;3.10;99.90;;;;;;5029979;27;20382;-94
2022/01/20 05:38:34;;;;;;;21.15;2.53;;;3.10;99.90;;;;;;5050158;27;20058;-94
2022/01/20 05:40:59;;;;;;;14.18;2.47;;;3.10;99.90;;;;;;5014173;27;20888;-94
2022/01/20 05:43:25;;;;;;;19.23;3.03;;;3.10;99.90;;;;;;5032216;27;20104;-96
2022/01/20 05:45:52;;;;;;;19.02;2.97;;;3.10;99.90;;;;;;5040190;27;20452;-95
2022/01/20 05:48:31;;;;;;;20.17;3.55;;;3.10;99.90;;;;;;5023451;27;20055;-94
2022/01/20 05:51:01;;;;;;;21.20;3.00;;;3.00;99.90;;;;;;5022128;27;20234;-95
2022/01/20 05:53:30;;;;;;;17.80;2.90;;;3.10;99.90;;;;;;5052757;27;20505;-95
2022/01/20 05:55:55;;;;;;;15.50;2.65;;;3.10;99.90;;;;;;5032458;27;20370;-96
2022/01/20 05:58:30;;;;;;;22.50;3.55;;;3.10;99.90;;;;;;5025173;27;20439;-93
2022/01/20 06:00:59;;;;;;;19.08;3.38;;;3.10;99.90;;;;;;5015930;27;20772;-95
2022/01/20 06:03:37;;;;;;;13.27;3.08;;;3.20;99.90;;;;;;5031575;27;20094;-95
2022/01/20 06:06:21;;;;;;;17.83;3.25;;;3.30;99.90;;;;;;5034911;27;20092;-93
2022/01/20 06:08:51;;;;;;;16.77;2.92;;;3.30;99.90;;;;;;5031928;27;20053;-94
2022/01/20 06:11:19;;;;;;;13.93;2.80;;;3.40;99.90;;;;;;5032064;27;20046;-94
2022/01/20 06:13:48;;;;;;;15.82;2.88;;;3.40;99.90;;;;;;5034195;27;20031;-95
2022/01/20 06:16:13;;;;;;;13.98;2.70;;;3.40;99.90;;;;;;5030267;27;20863;-95
2022/01/20 06:18:39;;;;;;;12.60;2.25;;;3.30;99.90;;;;;;5049525;27;20050;-94
2022/01/20 06:21:06;;;;;;;16.90;3.17;;;3.30;99.90;;;;;;5049493;27;20341;-94
2022/01/20 06:23:45;;;;;;;;;;;;;;;;;;;;;
2022/01/20 06:26:13;;;;;;;16.40;2.97;;;3.30;99.90;;;;;;5026071;27;20499;-95
2022/01/20 06:28:42;;;;;;;15.23;2.30;;;3.20;99.90;;;;;;5030665;27;20039;-94
2022/01/20 06:31:11;;;;;;;9.65;1.73;;;3.20;99.90;;;;;;4995788;27;20690;-93
2022/01/20 06:33:43;;;;;;;11.88;2.45;;;3.10;99.90;;;;;;5017522;27;20047;-93
2022/01/20 06:36:14;;;;;;;10.73;2.58;;;3.00;99.90;;;;;;5027324;28;20120;-96
2022/01/20 06:38:43;;;;;;;13.95;2.15;;;3.00;99.90;;;;;;5032922;27;20237;-95
2022/01/20 06:41:11;;;;;;;15.43;2.60;;;3.00;99.90;;;;;;5031498;27;20046;-94
2022/01/20 06:43:40;;;;;;;15.07;2.08;;;3.00;99.90;;;;;;5014481;27;20062;-92
2022/01/20 06:46:06;;;;;;;16.00;2.22;;;3.00;99.90;;;;;;5036415;28;20047;-93
2022/01/20 06:48:35;;;;;;;12.88;2.25;;;2.90;99.90;;;;;;5016839;28;20507;-94
2022/01/20 06:51:03;;;;;;;11.80;2.35;;;2.90;99.90;;;;;;5030862;28;20039;-95
2022/01/20 06:53:29;;;;;;;12.43;1.90;;;2.90;99.90;;;;;;4999383;28;20551;-95
2022/01/20 06:55:57;;;;;;;12.77;2.40;;;2.90;99.90;;;;;;4994828;28;20039;-94
2022/01/20 06:58:23;;;;;;;18.05;2.58;;;2.90;99.90;;;;;;5033897;28;20831;-94
2022/01/20 07:00:49;;;;;;;12.05;2.00;;;2.90;99.90;;;;;;5019615;28;20487;-94
2022/01/20 07:03:16;;;;;;;14.50;2.42;;;2.90;99.90;;;;;;5052636;28;20047;-95
2022/01/20 07:05:45;;;;;;;14.43;2.17;;;2.90;99.90;;;;;;5034184;28;20363;-94
2022/01/20 07:08:14;;;;;;;13.25;2.58;;;2.80;99.90;;;;;;5036658;28;20442;-93
2022/01/20 07:10:39;;;;;;;14.90;2.70;;;2.80;99.90;;;;;;5009906;28;20039;-95
2022/01/20 07:13:08;;;;;;;14.07;1.90;;;2.80;99.90;;;;;;5034460;28;20367;-95
2022/01/20 07:18:42;;;;;;;18.10;2.38;;;2.60;99.90;;;;;;5073946;28;20108;-93
2022/01/20 07:21:17;;;;;;;13.57;2.33;;;2.50;99.90;;;;;;5020538;28;20525;-95
2022/01/20 07:23:43;;;;;;;16.30;2.28;;;2.50;99.90;;;;;;5026089;28;20100;-94
2022/01/20 07:26:09;;;;;;;12.90;2.60;;;2.50;99.90;;;;;;5034139;28;20447;-92
2022/01/20 07:28:38;;;;;;;15.77;2.42;;;2.40;99.90;;;;;;5012881;28;20896;-93
2022/01/20 07:31:20;;;;;;;;;;;;;;;;;;;;;
2022/01/20 07:33:56;;;;;;;20.48;2.53;;;2.40;99.90;;;;;;5061866;28;20059;-95
2022/01/20 07:36:28;;;;;;;16.63;2.40;;;2.40;99.90;;;;;;5020160;28;20675;-96
2022/01/20 07:38:54;;;;;;;15.23;2.35;;;2.30;99.90;;;;;;5014727;27;20051;-92
2022/01/20 07:41:20;;;;;;;20.38;2.30;;;2.30;99.90;;;;;;5035032;27;20062;-95
2022/01/20 07:43:46;;;;;;;22.05;3.00;;;2.30;99.90;;;;;;5036684;27;20813;-93
2022/01/20 07:46:22;;;;;;;15.50;2.47;;;2.30;99.90;;;;;;5021234;27;20127;-95
2022/01/20 07:48:53;;;;;;;17.13;2.85;;;2.30;99.90;;;;;;5024432;27;20700;-94
2022/01/20 07:51:25;;;;;;;20.00;2.85;;;2.30;99.90;;;;;;5009392;27;20240;-96
2022/01/20 07:53:51;;;;;;;20.05;2.95;;;2.40;99.90;;;;;;5037415;27;20035;-96
2022/01/20 07:56:20;;;;;;;14.30;2.60;;;2.40;99.90;;;;;;5012905;27;20039;-95
2022/01/20 07:58:48;;;;;;;15.55;2.40;;;2.40;99.90;;;;;;5036197;27;20058;-95
2022/01/20 08:01:17;;;;;;;16.08;2.97;;;2.40;99.90;;;;;;5036303;27;20164;-93
2022/01/20 08:03:53;;;;;;;14.48;2.35;;;2.50;99.90;;;;;;5028458;27;20043;-95
2022/01/20 08:06:22;;;;;;;18.73;2.63;;;2.70;99.90;;;;;;5039372;27;20047;-95
2022/01/20 08:08:57;;;;;;;19.50;3.55;;;2.80;99.90;;;;;;5041905;27;20282;-96
2022/01/20 08:11:33;;;;;;;17.80;3.38;;;3.00;99.90;;;;;;5033159;27;20039;-92
2022/01/20 08:14:02;;;;;;;17.70;3.28;;;3.00;99.90;;;;;;5023217;27;20620;-95
2022/01/20 08:16:30;;;;;;;15.07;2.58;;;2.90;99.90;;;;;;5033786;27;20122;-93
2022/01/20 08:18:56;;;;;;;18.10;2.50;;;2.90;99.90;;;;;;5038320;27;20046;-91
2022/01/20 08:21:28;;;;;;;16.23;2.67;;;2.80;99.90;;;;;;5046208;27;20440;-96
2022/01/20 08:23:56;;;;;;;14.95;2.85;;;2.80;99.90;;;;;;5038184;27;20402;-94
2022/01/20 08:26:25;;;;;;;11.93;2.08;;;2.70;99.90;;;;;;5032582;27;20100;-93
2022/01/20 08:28:56;;;;;;;14.25;2.80;;;2.70;99.90;;;;;;5026639;27;20039;-95
2022/01/20 08:31:24;;;;;;;16.45;2.45;;;2.70;99.90;;;;;;5037103;27;20092;-95
2022/01/20 08:33:58;;;;;;;17.75;3.00;;;2.70;99.90;;;;;;5010758;27;20391;-91
2022/01/20 08:36:25;;;;;;;13.35;2.40;;;2.80;99.90;;;;;;5034277;27;20074;-92
2022/01/20 08:38:57;;;;;;;20.08;2.67;;;2.80;99.90;;;;;;5046466;27;20047;-94
2022/01/20 08:41:23;;;;;;;20.60;3.28;;;2.80;99.90;;;;;;5040714;27;20039;-93
2022/01/20 08:43:50;;;;;;;16.15;3.22;;;2.90;99.90;;;;;;5035982;27;20058;-94
2022/01/20 08:46:21;;;;;;;21.08;3.30;;;2.90;99.90;;;;;;5037818;27;20079;-96
2022/01/20 08:48:47;;;;;;;17.77;3.10;;;3.00;99.90;;;;;;5029934;27;20150;-93
2022/01/20 08:51:12;;;;;;;18.08;2.83;;;3.00;99.90;;;;;;5035482;27;20258;-94
2022/01/20 08:53:41;;;;;;;19.35;3.45;;;3.10;99.90;;;;;;5021276;27;20082;-93
2022/01/20 08:56:07;;;;;;;22.27;2.80;;;3.20;99.90;;;;;;5007936;27;20438;-90
2022/01/20 08:58:38;;;;;;;19.70;3.42;;;3.20;99.90;;;;;;5030749;27;20495;-95
2022/01/20 09:01:12;;;;;;;17.25;2.80;;;3.10;99.90;;;;;;5033912;27;20839;-92
2022/01/20 09:03:38;;;;;;;16.90;2.80;;;3.10;99.90;;;;;;5032706;27;20078;-94
2022/01/20 09:06:06;;;;;;;19.02;2.67;;;3.10;99.90;;;;;;5034097;27;20188;-93
2022/01/20 09:08:32;;;;;;;16.17;2.85;;;3.20;99.90;;;;;;5012798;27;20411;-91
2022/01/20 09:11:01;;;;;;;18.92;3.13;;;3.30;99.90;;;;;;5033066;27;20557;-95
2022/01/20 09:16:17;;;;;;;14.95;2.42;;;3.40;99.90;;;;;;5052246;27;20051;-93
2022/01/20 09:18:43;;;;;;;17.55;2.75;;;3.40;99.90;;;;;;5019285;27;20068;-92
2022/01/20 09:21:11;;;;;;;21.10;3.47;;;3.40;99.90;;;;;;5016278;27;20050;-92
2022/01/20 09:23:37;;;;;;;16.17;3.10;;;3.50;99.90;;;;;;5048829;27;20126;-90
2022/01/20 09:26:03;;;;;;;21.88;3.15;;;3.70;99.90;;;;;;5016810;27;20043;-92
2022/01/20 09:28:38;;;;;;;18.85;3.40;;;3.90;99.90;;;;;;5049141;27;20099;-91
2022/01/20 09:31:08;;;;;;;15.85;3.15;;;4.10;99.90;;;;;;5037547;27;20053;-95
2022/01/20 09:33:39;;;;;;;18.48;2.95;;;4.40;99.90;;;;;;5025552;27;20925;-91
2022/01/20 09:36:09;;;;;;;17.98;3.22;;;4.30;99.90;;;;;;5027570;27;20614;-92
2022/01/20 09:38:43;;;;;;;15.63;3.30;;;4.20;99.90;;;;;;5034473;27;20047;-96
2022/01/20 09:41:12;;;;;;;19.48;3.42;;;4.10;99.90;;;;;;5034378;27;20050;-92
2022/01/20 09:43:41;;;;;;;13.90;2.40;;;3.90;99.90;;;;;;5012083;27;20042;-92
2022/01/20 09:46:12;;;;;;;16.70;2.83;;;3.80;99.90;;;;;;5047625;27;20276;-88
2022/01/20 09:48:40;;;;;;;16.02;2.92;;;3.60;99.90;;;;;;5025467;27;20510;-95
2022/01/20 09:51:09;;;;;;;16.70;2.63;;;3.50;99.90;;;;;;5036181;27;20494;-93
2022/01/20 09:53:35;;;;;;;14.82;2.53;;;3.50;99.90;;;;;;5017839;27;20538;-91
2022/01/20 09:56:02;;;;;;;17.17;2.67;;;3.40;99.90;;;;;;5017207;27;20039;-92
2022/01/20 09:58:31;;;;;;;16.77;2.75;;;3.40;99.90;;;;;;5020643;27;20727;-93
2022/01/20 10:01:02;;;;;;;19.33;3.15;;;3.50;99.90;;;;;;5037720;27;20039;-93
2022/01/20 10:03:35;;;;;;;15.65;2.83;;;3.90;99.90;;;;;;5024088;27;20062;-94
2022/01/20 10:06:05;;;;;;;13.77;2.65;;;3.90;99.90;;;;;;5036715;27;20150;-93
2022/01/20 10:08:45;;;;;;;11.50;2.35;;;3.90;99.90;;;;;;5033912;27;20209;-94
2022/01/20 10:11:24;;;;;;;10.50;2.42;;;4.00;99.90;;;;;;5004882;27;20135;-94
2022/01/20 10:13:55;;;;;;;15.05;2.38;;;3.90;99.90;;;;;;5021720;27;21025;-93
2022/01/20 10:16:23;;;;;;;16.33;2.42;;;3.90;99.90;;;;;;5024229;28;20090;-94
2022/01/20 10:19:06;;;;;;;12.98;2.10;;;3.80;99.90;;;;;;5031711;27;20046;-95
2022/01/20 10:21:47;;;;;;;9.27;1.98;;;3.80;99.90;;;;;;5044483;27;20700;-91
2022/01/20 10:24:19;;;;;;;9.95;2.22;;;3.80;99.90;;;;;;5022109;27;20051;-91
2022/01/20 10:27:10;;;;;;;13.10;2.55;;;3.80;99.90;;;;;;5047576;27;20043;-96
2022/01/20 10:29:36;;;;;;;10.75;2.10;;;3.70;99.90;;;;;;5018390;27;20811;-92
2022/01/20 10:32:07;;;;;;;11.93;2.20;;;3.60;99.90;;;;;;5018083;27;20039;-96
2022/01/20 10:34:36;;;;;;;11.82;1.80;;;3.60;99.90;;;;;;5036505;27;20047;-93
2022/01/20 10:37:13;;;;;;;10.45;1.80;;;3.60;99.90;;;;;;5011674;27;20048;-91
2022/01/20 10:39:43;;;;;;;13.32;1.95;;;3.60;99.90;;;;;;5033534;28;20042;-91
2022/01/20 10:42:11;;;;;;;9.52;2.10;;;3.70;99.90;;;;;;5033172;27;20039;-93
2022/01/20 10:44:51;;;;;;;13.90;1.67;;;3.80;99.90;;;;;;5033395;27;20533;-92
2022/01/20 10:47:33;;;;;;;11.23;1.90;;;3.80;99.90;;;;;;5030508;27;20047;-94
2022/01/20 10:50:18;;;;;;;12.75;2.35;;;3.80;99.90;;;;;;5032776;27;20103;-93
2022/01/20 10:52:47;;;;;;;15.02;2.65;;;3.80;99.90;;;;;;5037269;28;20047;-96
2022/01/20 10:55:19;;;;;;;13.43;2.28;;;3.80;99.90;;;;;;5015530;28;20051;-93
2022/01/20 10:57:52;;;;;;;14.93;2.10;;;3.60;99.90;;;;;;5027217;28;20643;-94
2022/01/20 11:00:20;;;;;;;14.52;2.30;;;3.90;99.90;;;;;;5030527;28;20071;-94
2022/01/20 11:02:58;;;;;;;13.90;1.95;;;3.80;99.90;;;;;;5032751;28;20104;-86
2022/01/20 11:05:25;;;;;;;11.07;1.80;;;3.80;99.90;;;;;;5016045;28;20039;-93
2022/01/20 11:07:54;;;;;;;11.23;1.90;;;3.70;99.90;;;;;;5034416;28;20043;-94
2022/01/20 11:10:20;;;;;;;9.52;2.00;;;3.60;99.90;;;;;;5022646;28;20215;-91
2022/01/20 11:12:52;;;;;;;12.02;2.28;;;3.50;99.90;;;;;;5023403;27;20636;-95
2022/01/20 11:15:29;;;;;;;11.55;1.95;;;3.50;99.90;;;;;;5051098;27;20035;-95
2022/01/20 11:18:01;;;;;;;11.95;1.92;;;3.60;99.90;;;;;;5032222;27;20045;-90
2022/01/20 11:20:29;;;;;;;10.18;1.58;;;3.60;99.90;;;;;;5043422;27;20673;-91
2022/01/20 11:23:09;;;;;;;12.10;2.28;;;3.80;99.90;;;;;;5047963;27;20804;-93
2022/01/20 11:25:39;;;;;;;12.40;2.20;;;3.80;99.90;;;;;;5029940;27;20310;-94
2022/01/20 11:28:08;;;;;;;9.95;1.83;;;3.80;99.90;;;;;;5037827;27;20126;-94
2022/01/20 11:30:38;;;;;;;11.27;2.20;;;4.10;99.90;;;;;;5058450;27;20050;-92
2022/01/20 11:33:08;;;;;;;13.75;2.47;;;4.30;99.90;;;;;;5020473;27;20476;-95
2022/01/20 11:35:54;;;;;;;15.02;2.58;;;4.20;99.90;;;;;;5040557;27;20245;-94
2022/01/20 11:38:44;;;;;;;14.57;2.58;;;4.30;99.90;;;;;;5049569;27;20043;-94
2022/01/20 11:41:23;;;;;;;;;;;;;;;;;;;;;
2022/01/20 11:44:18;;;;;;;11.68;2.13;;;4.50;99.90;;;;;;5061523;27;20502;-93
2022/01/20 11:46:46;;;;;;;12.82;2.67;;;4.80;99.90;;;;;;5042442;27;20083;-94
2022/01/20 11:49:17;;;;;;;12.13;2.30;;;5.10;99.90;;;;;;5038968;27;20043;-93
2022/01/20 11:51:47;;;;;;;17.30;2.92;;;5.20;99.90;;;;;;5038319;27;20550;-92
2022/01/20 11:54:31;;;;;;;12.65;2.13;;;5.20;99.90;;;;;;5035315;27;20042;-95
2022/01/20 11:57:06;;;;;;;17.23;2.92;;;5.30;99.90;;;;;;5039424;27;20043;-95
2022/01/20 11:59:51;;;;;;;13.55;2.40;;;5.50;99.90;;;;;;5053649;27;20043;-92
2022/01/20 12:02:55;;;;;;;14.98;2.72;;;5.60;99.90;;;;;;5038643;27;20422;-95
2022/01/20 12:05:30;;;;;;;17.67;2.53;;;5.40;99.90;;;;;;5022777;27;20047;-91
2022/01/20 12:08:11;;;;;;;14.05;2.65;;;4.80;99.90;;;;;;5041950;27;20424;-93
2022/01/20 12:10:59;;;;;;;17.88;2.55;;;4.60;99.90;;;;;;5041041;27;20282;-95
2022/01/20 12:13:31;;;;;;;14.13;2.35;;;4.40;99.90;;;;;;5038954;27;20452;-95
2022/01/20 12:16:02;;;;;;;14.13;2.80;;;4.20;99.90;;;;;;5037579;27;20375;-95
2022/01/20 12:18:29;;;;;;;16.90;4.47;;;4.30;99.90;;;;;;5012975;27;20336;-91
2022/01/20 12:21:14;;;;;;;18.42;4.85;;;4.00;99.90;;;;;;5037409;27;20436;-93
2022/01/20 12:23:54;;;;;;;16.42;2.80;;;4.00;99.90;;;;;;5038337;27;20047;-91
2022/01/20 12:26:24;;;;;;;15.43;2.70;;;4.30;99.90;;;;;;5038161;27;20530;-91
2022/01/20 12:29:08;;;;;;;15.40;2.85;;;4.50;99.90;;;;;;5039261;27;20438;-92
2022/01/20 12:31:51;;;;;;;16.90;2.83;;;4.60;99.90;;;;;;5038911;27;20042;-94
2022/01/20 12:34:19;;;;;;;13.97;2.27;;;4.70;99.90;;;;;;5035149;27;20047;-94
2022/01/20 12:37:17;;;;;;;13.15;3.20;;;4.50;99.90;;;;;;5025308;27;20039;-94
2022/01/20 12:39:43;;;;;;;15.30;2.67;;;4.60;99.90;;;;;;5037467;27;20039;-94
2022/01/20 12:42:35;;;;;;;16.42;2.97;;;4.90;99.90;;;;;;5021714;27;20082;-96
2022/01/20 12:45:55;;;;;;;14.55;2.90;;;5.00;99.90;;;;;;5032234;27;20504;-93
2022/01/20 12:47:47;;;;;;;15.30;2.55;;;5.20;99.90;;;;;;5033770;27;20435;-93
2022/01/20 12:50:16;;;;;;;11.27;2.55;;;5.20;99.90;;;;;;4995386;27;20781;-90
2022/01/20 12:52:49;;;;;;;12.40;2.63;;;5.40;99.90;;;;;;5028218;27;20054;-92
2022/01/20 12:55:25;;;;;;;13.93;2.70;;;5.30;99.90;;;;;;5025536;27;20419;-92
2022/01/20 12:58:00;;;;;;;14.38;2.67;;;5.60;99.90;;;;;;5044290;27;20051;-96
2022/01/20 13:00:26;;;;;;;14.90;4.82;;;5.60;99.90;;;;;;5036819;27;20043;-92
2022/01/20 13:02:52;;;;;;;13.98;3.85;;;5.50;99.90;;;;;;5026639;27;20109;-93
2022/01/20 13:05:19;;;;;;;14.02;3.38;;;5.30;99.90;;;;;;5052100;27;20499;-91
2022/01/20 13:07:51;;;;;;;16.63;3.50;;;5.20;99.90;;;;;;5035870;27;20407;-93
2022/01/20 13:10:23;;;;;;;15.73;2.92;;;5.10;99.90;;;;;;5036855;27;20463;-89
2022/01/20 13:12:52;;;;;;;12.40;2.50;;;5.10;99.90;;;;;;5015421;27;20061;-92
2022/01/20 13:15:26;;;;;;;12.32;2.50;;;5.10;99.90;;;;;;5019442;27;20437;-91
2022/01/20 13:18:15;;;;;;;16.45;2.85;;;5.00;99.90;;;;;;5050257;27;20039;-94
2022/01/20 13:20:52;;;;;;;13.10;2.78;;;5.10;99.90;;;;;;5032809;27;20596;-93
2022/01/20 13:24:03;;;;;;;14.20;2.58;;;5.30;99.90;;;;;;5050055;27;20050;-95
2022/01/20 13:26:53;;;;;;;13.57;2.83;;;5.30;99.90;;;;;;5020257;27;20776;-95
2022/01/20 13:29:24;;;;;;;15.98;2.90;;;5.20;99.90;;;;;;5016990;27;20051;-95
2022/01/20 13:32:02;;;;;;;17.08;2.80;;;5.10;99.90;;;;;;5028699;27;20043;-90
2022/01/20 13:34:28;;;;;;;36.33;4.95;;;5.10;99.90;;;;;;5027431;27;20356;-92
2022/01/20 13:37:14;;;;;;;;;;;;;;;;;;;;;
2022/01/20 13:39:41;;;;;;;13.57;3.03;;;5.00;99.90;;;;;;5048841;27;20054;-92
2022/01/20 13:44:59;;;;;;;16.25;2.63;;;5.00;99.90;;;;;;5018323;27;20086;-92
2022/01/20 13:45:46;;;;;;;14.80;3.05;;;4.90;99.90;;;;;;5047228;27;20043;-94
2022/01/20 13:48:14;;;;;;;18.00;3.05;;;4.90;99.90;;;;;;5026814;27;20063;-93
2022/01/20 13:50:43;;;;;;;20.55;2.83;;;4.90;99.90;;;;;;5027243;27;20043;-90
2022/01/20 13:53:39;;;;;;;14.50;2.67;;;4.80;99.90;;;;;;5050747;27;20047;-94
2022/01/20 13:56:16;;;;;;;12.85;2.58;;;4.80;99.90;;;;;;5029218;27;20039;-94
2022/01/20 13:58:45;;;;;;;14.30;2.22;;;4.80;99.90;;;;;;5045261;27;20124;-93
2022/01/20 14:01:27;;;;;;;14.15;2.08;;;5.10;99.90;;;;;;5063536;27;20054;-92
2022/01/20 14:04:05;;;;;;;11.60;2.08;;;5.30;99.90;;;;;;5013027;27;20250;-93
2022/01/20 14:06:39;;;;;;;13.10;2.35;;;5.40;99.90;;;;;;5049519;27;20071;-92
2022/01/20 14:09:05;;;;;;;16.80;2.80;;;5.50;99.90;;;;;;5015742;27;20054;-90
2022/01/20 14:11:31;;;;;;;13.20;2.10;;;5.60;99.90;;;;;;5033899;27;20078;-91
2022/01/20 14:14:01;;;;;;;13.15;2.75;;;5.80;99.90;;;;;;5006954;27;20528;-90
2022/01/20 14:16:42;;;;;;;14.25;2.58;;;5.90;99.90;;;;;;5029726;27;20054;-93
2022/01/20 14:19:11;;;;;;;17.08;2.63;;;5.80;99.90;;;;;;5038674;27;20069;-91
2022/01/20 14:21:40;;;;;;;11.55;2.17;;;5.80;99.90;;;;;;5025393;27;20622;-94